Terminal Aerodrome Forecast
Issued by NWS

Home | Current Version | Previous Version | Text Only | Print | Product List | Glossary On
Versions: 1 2 3 4 5 6 7 8 9 10 11 12 13 14 15 16 17
000
FTAK31 PAFA 240541
TAFAUN
TAF
PAUN 240541Z 2406/2506 27003KT P6SM BKN110
     FM241800 04011KT P6SM SCT200
     FM242300 33010KT P6SM BKN250=

USA.gov is the U.S. government's official web portal to all federal, state and local government web resources and services.